createdAt,value
2024-02-29T00:48:00.425Z,11.38
2024-02-29T00:53:23.369Z,9.95
2024-02-29T00:55:51.972Z,8.80
2024-02-29T00:58:20.107Z,9.10
2024-02-29T01:00:53.545Z,8.88
2024-02-29T01:03:22.181Z,8.43
2024-02-29T01:05:57.413Z,7.78
2024-02-29T01:08:26.729Z,8.50
2024-02-29T01:10:54.708Z,8.27
2024-02-29T01:13:25.569Z,6.88
2024-02-29T01:15:58.662Z,7.82
2024-02-29T01:18:31.312Z,8.27
2024-02-29T01:20:59.876Z,8.57
2024-02-29T01:28:47.230Z,8.40
2024-02-29T01:33:59.846Z,8.07
2024-02-29T01:39:20.808Z,7.35
2024-02-29T01:42:06.074Z,8.57
2024-02-29T01:44:59.582Z,8.48
2024-02-29T01:56:19.394Z,7.30
2024-02-29T02:04:40.305Z,7.40
2024-02-29T02:07:32.465Z,7.10
2024-02-29T02:13:15.031Z,6.95
2024-02-29T02:16:02.505Z,6.57
2024-02-29T02:18:45.005Z,7.00
2024-02-29T02:21:32.001Z,7.72
2024-02-29T02:24:29.654Z,7.40
2024-02-29T02:27:20.382Z,7.55
2024-02-29T02:30:08.909Z,7.30
2024-02-29T02:33:14.756Z,6.97
2024-02-29T02:35:41.957Z,7.15
2024-02-29T02:38:09.117Z,6.90
2024-02-29T02:44:04.857Z,6.45
2024-02-29T02:47:09.140Z,6.97
2024-02-29T02:49:48.697Z,7.63
2024-02-29T02:52:39.620Z,6.15
2024-02-29T02:57:42.096Z,6.65
2024-02-29T03:00:32.177Z,6.80
2024-02-29T03:03:09.928Z,6.80
2024-02-29T03:05:59.205Z,7.32
2024-02-29T03:08:34.820Z,7.13
2024-02-29T03:11:35.181Z,7.15
2024-02-29T03:14:12.661Z,6.18
2024-02-29T03:19:37.914Z,7.50
2024-02-29T03:22:23.314Z,6.57
2024-02-29T03:25:04.492Z,7.07
2024-02-29T03:27:42.999Z,6.97
2024-02-29T03:46:21.480Z,7.47
2024-02-29T03:48:57.625Z,6.95
2024-02-29T03:54:34.241Z,7.55
2024-02-29T03:57:22.572Z,8.07
2024-02-29T04:00:15.526Z,7.43
2024-02-29T04:06:06.575Z,7.32
2024-02-29T04:11:18.184Z,7.63
2024-02-29T04:13:56.241Z,7.95
2024-02-29T04:16:40.908Z,7.70
2024-02-29T04:19:34.869Z,7.35
2024-02-29T04:30:33.074Z,6.38
2024-02-29T04:39:11.336Z,6.70
2024-02-29T04:47:23.814Z,6.45
2024-02-29T04:50:11.598Z,6.30
2024-02-29T04:52:52.038Z,6.68
2024-02-29T05:00:43.398Z,6.57
2024-02-29T05:03:16.680Z,7.15
2024-02-29T05:08:53.154Z,7.28
2024-02-29T05:11:49.852Z,7.38
2024-02-29T05:14:23.434Z,7.47
2024-02-29T05:16:53.112Z,8.20
2024-02-29T05:35:35.385Z,6.18
2024-02-29T05:48:45.208Z,5.25
2024-02-29T06:07:30.868Z,5.60
2024-02-29T06:42:59.664Z,4.95
2024-02-29T06:57:18.672Z,4.97
2024-02-29T07:08:56.498Z,5.75
2024-02-29T07:11:29.243Z,5.32
2024-02-29T07:14:11.866Z,6.80
2024-02-29T07:17:04.894Z,6.70
2024-02-29T07:19:48.216Z,6.03
2024-02-29T07:27:32.039Z,6.68
2024-02-29T07:36:08.232Z,6.88
2024-02-29T07:44:15.346Z,5.65
2024-02-29T07:46:58.727Z,6.53
2024-02-29T07:49:41.745Z,5.80
2024-02-29T07:55:20.587Z,5.43
2024-02-29T08:06:03.072Z,4.88
2024-02-29T08:23:38.321Z,5.07
2024-02-29T08:26:27.206Z,5.38
2024-02-29T08:29:18.212Z,5.03
2024-02-29T08:31:45.085Z,5.20
2024-02-29T08:36:57.247Z,5.28
2024-02-29T08:39:40.231Z,5.22
2024-02-29T08:42:32.342Z,5.70
2024-02-29T08:45:37.748Z,5.07
2024-02-29T08:48:28.548Z,5.55
2024-02-29T08:51:16.446Z,5.53
2024-02-29T08:54:15.250Z,5.03
2024-02-29T08:57:00.978Z,4.95
2024-02-29T08:59:37.395Z,5.32
2024-02-29T09:02:14.093Z,5.38
2024-02-29T09:04:52.909Z,5.20
2024-02-29T09:07:44.108Z,5.68
2024-02-29T09:10:21.491Z,4.95
2024-02-29T09:13:08.415Z,4.97
2024-02-29T09:15:55.483Z,5.32
2024-02-29T09:21:17.627Z,4.65
2024-02-29T09:23:54.261Z,4.28
2024-02-29T09:26:28.911Z,4.78
2024-02-29T09:29:05.268Z,6.20
2024-02-29T09:32:06.491Z,5.43
2024-02-29T09:34:50.793Z,5.57
2024-02-29T09:37:41.185Z,4.50
2024-02-29T09:40:20.972Z,4.83
2024-02-29T09:51:06.361Z,4.50
2024-02-29T09:53:49.740Z,4.97
2024-02-29T09:56:31.134Z,4.63
2024-02-29T09:59:15.117Z,4.68
2024-02-29T10:01:49.132Z,5.38
2024-02-29T10:04:41.519Z,5.40
2024-02-29T10:07:22.245Z,5.35
2024-02-29T10:10:06.217Z,5.47
2024-02-29T10:12:46.262Z,5.57
2024-02-29T10:15:21.877Z,5.10
2024-02-29T10:34:41.252Z,6.07
2024-02-29T10:37:21.389Z,5.60
2024-02-29T10:42:29.783Z,4.90
2024-02-29T10:44:56.291Z,5.43
2024-02-29T10:47:22.965Z,5.80
2024-02-29T10:49:49.562Z,5.05
2024-02-29T10:52:27.404Z,6.13
2024-02-29T10:54:56.931Z,5.85
2024-02-29T10:57:29.404Z,5.78
2024-02-29T10:59:59.718Z,5.53
2024-02-29T11:02:27.158Z,6.18
2024-02-29T11:04:54.071Z,5.55
2024-02-29T11:07:20.785Z,5.13
2024-02-29T11:09:47.491Z,5.15
2024-02-29T11:12:14.891Z,5.32
2024-02-29T11:14:45.803Z,5.40
2024-02-29T11:17:15.739Z,4.95
2024-02-29T11:19:48.160Z,5.32
2024-02-29T11:22:21.153Z,5.60
2024-02-29T11:24:47.852Z,5.85
2024-02-29T11:27:14.606Z,5.55
2024-02-29T11:29:46.251Z,4.68
2024-02-29T11:32:12.805Z,4.68
2024-02-29T11:34:39.395Z,5.18
2024-02-29T11:37:06.263Z,5.25
2024-02-29T11:39:32.943Z,4.90
2024-02-29T11:42:44.871Z,5.32
2024-02-29T11:50:53.309Z,5.53
2024-02-29T11:53:53.369Z,5.38
2024-02-29T11:56:31.057Z,4.78
2024-02-29T11:59:23.260Z,4.73
2024-02-29T12:02:02.487Z,4.97
2024-02-29T12:04:49.377Z,4.75
2024-02-29T12:10:28.696Z,5.43
2024-02-29T12:13:11.333Z,5.38
2024-02-29T12:21:40.902Z,5.75
2024-02-29T12:24:09.049Z,5.90
2024-02-29T12:26:36.668Z,5.30
2024-02-29T12:29:03.830Z,5.50
2024-02-29T12:31:33.924Z,5.07
2024-02-29T12:34:05.095Z,4.85
2024-02-29T12:36:33.405Z,4.70
2024-02-29T12:39:02.634Z,5.10
2024-02-29T12:41:29.268Z,5.10
2024-02-29T12:44:02.880Z,4.90
2024-02-29T12:46:29.866Z,4.38
2024-02-29T12:48:57.695Z,4.47
2024-02-29T12:51:24.979Z,5.50
2024-02-29T12:53:52.719Z,4.57
2024-02-29T12:56:25.726Z,4.40
2024-02-29T12:58:53.451Z,4.55
2024-02-29T13:01:26.532Z,5.22
2024-02-29T13:03:54.394Z,4.40
2024-02-29T13:06:21.866Z,4.60
2024-02-29T13:08:52.757Z,4.78
2024-02-29T13:11:19.666Z,5.00
2024-02-29T13:13:46.909Z,4.20
2024-02-29T13:16:18.507Z,3.92
2024-02-29T13:18:45.768Z,4.63
2024-02-29T13:21:12.907Z,4.07
2024-02-29T13:23:40.576Z,4.18
2024-02-29T13:26:10.303Z,4.57
2024-02-29T13:28:37.439Z,4.60
2024-02-29T13:31:04.606Z,4.18
2024-02-29T13:33:32.438Z,4.50
2024-02-29T13:35:59.437Z,4.85
2024-02-29T13:38:27.013Z,4.57
2024-02-29T13:40:54.240Z,4.55
2024-02-29T13:43:21.886Z,4.75
2024-02-29T13:45:49.266Z,4.20
2024-02-29T13:48:16.495Z,4.68
2024-02-29T13:50:43.843Z,4.50
2024-02-29T13:53:10.879Z,5.00
2024-02-29T13:55:39.614Z,5.03
2024-02-29T13:58:06.678Z,4.50
2024-02-29T14:00:34.227Z,4.88
2024-02-29T14:03:03.202Z,4.95
2024-02-29T14:05:31.083Z,4.90
2024-02-29T14:07:58.102Z,4.53
2024-02-29T14:10:25.251Z,4.35
2024-02-29T14:12:52.057Z,4.30
2024-02-29T14:15:20.819Z,5.22
2024-02-29T14:17:52.409Z,4.32
2024-02-29T14:20:19.887Z,4.13
2024-02-29T14:22:49.723Z,4.30
2024-02-29T14:27:44.960Z,3.92
2024-02-29T14:30:14.932Z,4.00
2024-02-29T14:32:44.608Z,4.68
2024-02-29T14:35:16.378Z,4.47
2024-02-29T14:40:15.231Z,4.75
2024-02-29T14:45:18.766Z,4.63
2024-02-29T14:47:46.846Z,4.72
2024-02-29T14:50:14.502Z,4.20
2024-02-29T14:52:42.388Z,4.65
2024-02-29T14:55:09.674Z,5.25
2024-02-29T14:57:39.480Z,5.05
2024-02-29T15:02:48.171Z,4.22
2024-02-29T15:05:17.326Z,5.38
2024-02-29T15:07:44.520Z,4.95
2024-02-29T15:10:15.587Z,5.35
2024-02-29T15:12:42.951Z,5.45
2024-02-29T15:15:10.401Z,5.75
2024-02-29T15:17:37.491Z,5.50
2024-02-29T15:20:05.911Z,4.95
2024-02-29T15:22:37.458Z,5.63
2024-02-29T15:25:15.129Z,4.70
2024-02-29T15:27:54.978Z,5.68
2024-02-29T15:30:22.066Z,5.22
2024-02-29T15:32:48.979Z,5.15
2024-02-29T15:35:16.278Z,5.95
2024-02-29T15:37:43.459Z,5.10
2024-02-29T15:40:12.969Z,5.78
2024-02-29T15:42:40.827Z,5.05
2024-02-29T15:45:08.470Z,5.13
2024-02-29T15:47:35.881Z,5.53
2024-02-29T15:50:03.117Z,6.10
2024-02-29T15:52:44.967Z,5.30
2024-02-29T15:55:11.823Z,4.85
2024-02-29T16:09:19.173Z,5.43
2024-02-29T16:12:08.172Z,4.82
2024-02-29T16:14:35.019Z,4.72
2024-02-29T16:17:03.405Z,4.85
2024-02-29T16:19:30.418Z,4.90
2024-02-29T16:22:00.166Z,5.18
2024-02-29T16:26:56.073Z,4.68
2024-02-29T16:29:23.069Z,4.80
2024-02-29T16:31:49.919Z,5.32
2024-02-29T16:34:21.474Z,4.68
2024-02-29T16:39:38.024Z,5.30
2024-02-29T16:42:11.964Z,5.43
2024-02-29T16:44:40.801Z,5.22
2024-02-29T16:49:42.789Z,5.32
2024-02-29T16:52:12.813Z,5.30
2024-02-29T16:54:40.160Z,5.40
2024-02-29T16:57:07.481Z,5.78
2024-02-29T16:59:35.807Z,5.82
2024-02-29T17:02:15.372Z,5.53
2024-02-29T17:04:52.762Z,5.78
2024-02-29T17:07:21.632Z,5.45
2024-02-29T17:09:53.932Z,5.47
2024-02-29T17:12:23.278Z,5.68
2024-02-29T17:14:54.019Z,6.22
2024-02-29T17:17:21.661Z,6.15
2024-02-29T17:20:11.531Z,5.43
2024-02-29T17:25:14.670Z,5.25
2024-02-29T17:27:42.660Z,6.35
2024-02-29T17:30:13.385Z,7.70
2024-02-29T17:32:47.490Z,7.88
2024-02-29T17:35:17.873Z,6.43
2024-02-29T17:37:45.287Z,7.70
2024-02-29T17:40:13.150Z,9.68
2024-02-29T17:42:41.344Z,9.30
2024-02-29T17:45:08.985Z,9.13
2024-02-29T17:47:36.489Z,8.40
2024-02-29T17:50:03.981Z,7.53
2024-02-29T17:52:31.240Z,8.13
2024-02-29T17:54:59.235Z,7.22
2024-02-29T17:57:26.437Z,8.02
2024-02-29T17:59:57.051Z,7.47
2024-02-29T18:02:24.057Z,8.30
2024-02-29T18:04:52.398Z,7.80
2024-02-29T18:07:25.305Z,7.85
2024-02-29T18:09:53.387Z,7.32
2024-02-29T18:12:29.190Z,6.30
2024-02-29T18:15:16.749Z,5.72
2024-02-29T18:20:56.279Z,5.90
2024-02-29T18:23:24.053Z,5.80
2024-02-29T18:25:51.306Z,5.75
2024-02-29T18:28:20.920Z,5.90
2024-02-29T18:30:49.581Z,5.70
2024-02-29T18:33:17.420Z,5.80
2024-02-29T18:35:46.880Z,6.30
2024-02-29T18:38:14.126Z,5.72
2024-02-29T18:40:44.544Z,5.80
2024-02-29T18:46:05.897Z,5.88
2024-02-29T18:48:46.021Z,5.90
2024-02-29T18:51:13.599Z,5.82
2024-02-29T19:04:32.367Z,5.78
2024-02-29T19:07:27.749Z,6.20
2024-02-29T19:14:13.452Z,5.30
2024-02-29T19:17:17.201Z,4.93
2024-02-29T19:19:47.048Z,4.82
2024-02-29T19:22:16.508Z,5.35
2024-02-29T19:24:43.100Z,5.30
2024-02-29T19:27:20.571Z,5.80
2024-02-29T19:29:53.543Z,5.63
2024-02-29T19:32:20.614Z,6.32
2024-02-29T19:34:47.159Z,6.20
2024-02-29T19:37:13.896Z,5.63
2024-02-29T19:39:40.608Z,5.50
2024-02-29T19:42:09.144Z,5.35
2024-02-29T19:44:35.644Z,4.88
2024-02-29T19:47:02.167Z,6.18
2024-02-29T19:49:28.814Z,5.18
2024-02-29T19:51:56.627Z,5.43
2024-02-29T19:54:23.197Z,5.10
2024-02-29T19:56:49.770Z,4.93
2024-02-29T19:59:16.254Z,4.43
2024-02-29T20:01:42.974Z,5.40
2024-02-29T20:04:09.726Z,5.50
2024-02-29T20:06:36.298Z,5.03
2024-02-29T20:09:02.934Z,5.85
2024-02-29T20:11:29.551Z,5.38
2024-02-29T20:13:56.390Z,5.22
2024-02-29T20:16:23.210Z,5.85
2024-02-29T20:18:49.813Z,4.93
2024-02-29T20:21:17.401Z,5.65
2024-02-29T20:23:44.177Z,5.20
2024-02-29T20:26:16.012Z,4.93
2024-02-29T20:28:42.944Z,4.65
2024-02-29T20:31:09.750Z,5.28
2024-02-29T20:33:36.889Z,6.20
2024-02-29T20:36:03.836Z,4.65
2024-02-29T20:38:30.740Z,4.63
2024-02-29T20:40:57.500Z,4.68
2024-02-29T20:43:24.098Z,4.43
2024-02-29T20:45:51.909Z,4.85
2024-02-29T20:48:18.470Z,4.93
2024-02-29T20:50:44.994Z,5.38
2024-02-29T20:53:11.608Z,4.68
2024-02-29T20:55:38.234Z,5.05
2024-02-29T20:58:04.820Z,4.75
2024-02-29T21:00:31.337Z,5.07
2024-02-29T21:02:57.897Z,5.00
2024-02-29T21:05:24.957Z,4.68
2024-02-29T21:07:51.570Z,4.78
2024-02-29T21:10:18.569Z,4.75
2024-02-29T21:12:45.729Z,4.75
2024-02-29T21:15:12.355Z,4.30
2024-02-29T21:17:39.262Z,4.45
2024-02-29T21:20:06.713Z,4.47
2024-02-29T21:22:33.324Z,5.22
2024-02-29T21:25:02.472Z,4.68
2024-02-29T21:27:29.199Z,4.32
2024-02-29T21:29:55.683Z,5.38
2024-02-29T21:32:22.204Z,5.05
2024-02-29T21:34:48.796Z,4.93
2024-02-29T21:37:15.579Z,4.97
2024-02-29T21:39:45.132Z,5.13
2024-02-29T21:42:12.421Z,5.70
2024-02-29T21:44:39.739Z,5.60
2024-02-29T21:47:06.336Z,5.22
2024-02-29T21:49:32.949Z,4.72
2024-02-29T21:52:00.049Z,4.78
2024-02-29T21:54:26.867Z,5.28
2024-02-29T21:56:53.437Z,4.65
2024-02-29T21:59:20.123Z,5.40
2024-02-29T22:01:47.816Z,6.10
2024-02-29T22:04:14.558Z,5.03
2024-02-29T22:06:42.856Z,5.22
2024-02-29T22:09:09.413Z,5.53
2024-02-29T22:11:35.963Z,4.47
2024-02-29T22:14:02.755Z,4.32
2024-02-29T22:16:29.690Z,4.47
2024-02-29T22:18:56.593Z,4.75
2024-02-29T22:21:29.252Z,4.47
2024-02-29T22:23:56.907Z,3.97
2024-02-29T22:26:26.482Z,3.80
2024-02-29T22:28:53.165Z,3.13
2024-02-29T22:31:19.960Z,3.75
2024-02-29T22:33:46.575Z,4.30
2024-02-29T22:36:13.399Z,3.75
2024-02-29T22:38:40.269Z,4.35
2024-02-29T22:41:06.816Z,3.75
2024-02-29T22:43:33.629Z,3.40
2024-02-29T22:46:00.280Z,3.00
2024-02-29T22:48:26.781Z,2.90
2024-02-29T22:50:53.393Z,3.05
2024-02-29T22:53:19.875Z,3.50
2024-02-29T22:55:50.561Z,3.33
2024-02-29T22:58:17.397Z,3.03
2024-02-29T23:00:43.991Z,3.20
2024-02-29T23:03:10.553Z,2.70
2024-02-29T23:05:38.645Z,3.13
2024-02-29T23:08:10.874Z,3.00
2024-02-29T23:10:39.256Z,2.63
2024-02-29T23:13:06.923Z,2.95
2024-02-29T23:15:33.744Z,3.20
2024-02-29T23:18:01.422Z,3.05
2024-02-29T23:20:28.241Z,3.58
2024-02-29T23:22:55.818Z,3.13
2024-02-29T23:25:25.170Z,3.40
2024-02-29T23:30:18.738Z,3.00
2024-02-29T23:32:45.304Z,3.17
2024-02-29T23:35:11.829Z,4.00
2024-02-29T23:37:38.428Z,3.53
2024-02-29T23:40:06.074Z,3.13
2024-02-29T23:42:32.620Z,2.97
2024-02-29T23:44:59.166Z,3.05
2024-02-29T23:47:25.712Z,3.00
2024-02-29T23:49:52.209Z,2.90
2024-02-29T23:52:18.785Z,2.88
2024-02-29T23:54:46.817Z,2.90
2024-02-29T23:57:14.020Z,2.95
2024-02-29T23:59:40.592Z,3.17
